Time;durP1;ratioP1;P1;durP2;ratioP2;P2;SDS_P1;SDS_P2;PMS_P1;PMS_P2;Temp;Humidity;BMP_temperature;BMP_pressure;BME280_temperature;BME280_humidity;BME280_pressure;Samples;Min_cycle;Max_cycle;Signal;HPM_P1;HPM_P2
2021/11/21 00:04:32;;;;;;;1999.90;999.90;;;;;;;12.26;67.08;100775.78;15620304;28;20050;-57
2021/11/21 00:12:06;;;;;;;1999.90;999.90;;;;;;;12.07;67.69;100759.47;15660857;28;20044;-58
2021/11/21 00:19:41;;;;;;;1999.90;999.90;;;;;;;12.27;66.74;100752.22;15658653;28;20516;-59
2021/11/21 00:27:15;;;;;;;1999.90;999.90;;;;;;;12.05;67.48;100742.22;15628392;28;20415;-58
2021/11/21 00:34:49;;;;;;;1999.90;999.90;;;;;;;12.09;67.31;100742.38;15651397;28;20044;-59
2021/11/21 00:42:22;;;;;;;1999.90;999.90;;;;;;;12.22;66.96;100724.47;15639959;28;20041;-56
2021/11/21 00:49:56;;;;;;;1999.90;999.90;;;;;;;11.98;67.59;100722.38;15655468;28;20050;-57
2021/11/21 00:57:29;;;;;;;1999.90;999.90;;;;;;;11.99;67.49;100726.03;15654771;28;20087;-55
2021/11/21 01:05:06;;;;;;;1999.90;999.90;;;;;;;11.81;67.85;100717.75;15638832;28;20045;-55
2021/11/21 01:12:40;;;;;;;1999.90;999.90;;;;;;;11.65;68.54;100713.09;15616191;28;20620;-58
2021/11/21 01:20:16;;;;;;;1999.90;999.90;;;;;;;11.62;68.88;100706.22;15642917;28;20405;-57
2021/11/21 01:27:50;;;;;;;1999.90;999.90;;;;;;;11.81;67.74;100692.59;15640977;28;20542;-59
2021/11/21 01:35:25;;;;;;;1999.90;999.90;;;;;;;11.71;67.81;100683.78;15656987;28;20057;-56
2021/11/21 01:42:59;;;;;;;1999.90;999.90;;;;;;;11.69;67.97;100669.34;15654475;28;20447;-57
2021/11/21 01:50:36;;;;;;;1999.90;999.90;;;;;;;11.49;68.55;100663.41;15652720;28;20052;-56
2021/11/21 01:58:09;;;;;;;1999.90;999.90;;;;;;;11.75;67.25;100632.44;15631660;28;20040;-59
2021/11/21 02:05:44;;;;;;;;;;;;;;;11.90;66.45;100619.84;15635182;28;20041;-57
2021/11/21 02:13:16;;;;;;;1999.90;999.90;;;;;;;11.61;66.72;100611.53;15671605;28;20149;-57
2021/11/21 02:20:53;;;;;;;1999.90;999.90;;;;;;;11.75;66.88;100593.28;15634664;28;20119;-61
2021/11/21 02:28:28;;;;;;;1999.90;999.90;;;;;;;11.72;66.50;100571.63;15671127;28;20501;-58
2021/11/21 02:36:05;;;;;;;1999.90;999.90;;;;;;;11.95;66.01;100572.06;15616705;28;20111;-58
2021/11/21 02:43:39;;;;;;;1999.90;999.90;;;;;;;11.57;66.43;100547.94;15620696;28;20053;-57
2021/11/21 02:51:15;;;;;;;1999.90;999.90;;;;;;;11.61;66.59;100544.47;15621107;28;20045;-57
2021/11/21 02:58:49;;;;;;;1999.90;999.90;;;;;;;11.80;65.96;100539.19;15617466;28;20323;-58
2021/11/21 03:06:24;;;;;;;1999.90;999.90;;;;;;;11.77;65.92;100545.41;15636014;28;20042;-57
2021/11/21 03:13:57;;;;;;;1999.90;999.90;;;;;;;11.75;65.90;100536.56;15648990;28;20134;-57
2021/11/21 03:21:33;;;;;;;1999.90;999.90;;;;;;;11.67;65.83;100535.53;15645125;28;20048;-60
2021/11/21 03:29:06;;;;;;;1999.90;999.90;;;;;;;11.52;65.78;100530.56;15661722;28;20053;-57
2021/11/21 03:36:41;;;;;;;1999.90;999.90;;;;;;;11.60;66.31;100537.25;15654671;28;20087;-56
2021/11/21 03:44:14;;;;;;;1999.90;999.90;;;;;;;11.70;65.87;100523.66;15629025;28;20050;-59
2021/11/21 03:51:48;;;;;;;1999.90;999.90;;;;;;;11.63;66.11;100516.97;15652426;28;20053;-61
2021/11/21 03:59:22;;;;;;;1999.90;999.90;;;;;;;11.09;67.52;100517.00;15639555;28;20094;-61
2021/11/21 04:06:56;;;;;;;1999.90;999.90;;;;;;;11.34;66.57;100518.72;15657190;28;20494;-63
2021/11/21 04:14:29;;;;;;;1999.90;999.90;;;;;;;11.08;67.48;100516.19;15642650;28;20341;-63
2021/11/21 04:22:04;;;;;;;1999.90;999.90;;;;;;;11.31;66.91;100499.06;15647334;28;20088;-64
2021/11/21 04:29:36;;;;;;;1999.90;999.90;;;;;;;11.31;66.36;100480.31;15636586;28;20049;-62
2021/11/21 04:37:11;;;;;;;1999.90;999.90;;;;;;;11.33;66.37;100477.19;15630727;28;20053;-64
2021/11/21 04:44:44;;;;;;;1999.90;999.90;;;;;;;11.46;65.85;100476.91;15637448;28;20048;-63
2021/11/21 04:52:18;;;;;;;1999.90;999.90;;;;;;;11.32;65.84;100467.16;15664553;28;20096;-63
2021/11/21 04:59:52;;;;;;;1999.90;999.90;;;;;;;11.01;67.03;100459.25;15669598;28;20048;-60
2021/11/21 05:07:26;;;;;;;1999.90;999.90;;;;;;;11.35;65.91;100458.09;15612843;28;20037;-63
2021/11/21 05:15:00;;;;;;;1999.90;999.90;;;;;;;11.34;65.67;100457.28;15654145;28;20045;-63
2021/11/21 05:22:34;;;;;;;1999.90;999.90;;;;;;;11.21;66.08;100447.22;15651316;28;20051;-62
2021/11/21 05:30:07;;;;;;;1999.90;999.90;;;;;;;11.31;65.49;100452.38;15645710;28;20394;-60
2021/11/21 05:37:42;;;;;;;1999.90;999.90;;;;;;;11.26;66.10;100438.66;15678551;28;20063;-63
2021/11/21 05:45:16;;;;;;;1999.90;999.90;;;;;;;11.16;66.58;100445.47;15649453;28;20497;-62
2021/11/21 05:52:53;;;;;;;1999.90;999.90;;;;;;;10.89;66.99;100435.69;15642991;28;20049;-62
2021/11/21 06:00:28;;;;;;;1999.90;999.90;;;;;;;11.13;66.56;100436.97;15597648;28;20050;-61
2021/11/21 06:08:06;;;;;;;1999.90;999.90;;;;;;;11.06;67.17;100429.16;15618516;28;20048;-60
2021/11/21 06:15:39;;;;;;;1999.90;999.90;;;;;;;11.01;66.95;100428.53;15606851;28;20052;-62
2021/11/21 06:23:20;;;;;;;1999.90;999.90;;;;;;;10.93;67.57;100425.47;15628130;28;20034;-62
2021/11/21 06:30:53;;;;;;;1999.90;999.90;;;;;;;10.96;68.01;100424.00;15603521;28;20467;-62
2021/11/21 06:38:29;;;;;;;1999.90;999.90;;;;;;;11.04;68.20;100411.91;15648851;28;20069;-62
2021/11/21 06:46:02;;;;;;;1999.90;999.90;;;;;;;10.91;68.15;100416.63;15667762;28;20045;-64
2021/11/21 06:53:37;;;;;;;1999.90;999.90;;;;;;;11.09;68.16;100405.31;15651741;28;20504;-64
2021/11/21 07:01:10;;;;;;;1999.90;999.90;;;;;;;10.91;68.40;100402.69;15655112;28;20342;-62
2021/11/21 07:08:44;;;;;;;1999.90;999.90;;;;;;;10.99;68.41;100403.75;15657536;28;20071;-63
2021/11/21 07:16:17;;;;;;;1999.90;999.90;;;;;;;11.20;67.74;100406.50;15668674;28;20342;-63
2021/11/21 07:23:51;;;;;;;1999.90;999.90;;;;;;;10.87;68.71;100403.72;15653143;28;20041;-62
2021/11/21 07:31:24;;;;;;;1999.90;999.90;;;;;;;11.01;68.73;100414.56;15657133;28;20072;-61
2021/11/21 07:39:01;;;;;;;1999.90;999.90;;;;;;;10.99;69.07;100400.97;15625884;28;20041;-64
2021/11/21 07:46:34;;;;;;;1999.90;999.90;;;;;;;10.96;69.15;100410.03;15674421;28;20048;-64
2021/11/21 08:02:07;;;;;;;1999.90;999.90;;;;;;;11.27;68.95;100423.53;15644428;28;20103;-63
2021/11/21 08:09:43;;;;;;;;;;;;;;;11.51;67.92;100437.53;15679620;28;20055;-63
2021/11/21 08:17:17;;;;;;;1999.90;999.90;;;;;;;11.03;70.03;100438.19;15645575;28;19927;-63
2021/11/21 08:24:52;;;;;;;1999.90;999.90;;;;;;;10.64;73.36;100439.53;15655707;28;20553;-64
2021/11/21 08:32:25;;;;;;;1999.90;999.90;;;;;;;10.72;74.34;100441.41;15670694;28;20409;-65
2021/11/21 08:39:59;;;;;;;1999.90;999.90;;;;;;;10.57;76.80;100436.47;15665865;28;20103;-62
2021/11/21 08:56:08;;;;;;;1999.90;999.90;;;;;;;10.66;78.60;100421.28;15691886;28;20049;-59
2021/11/21 09:04:11;;;;;;;1999.90;999.90;;;;;;;10.57;78.74;100444.84;15664087;28;20048;-61
2021/11/21 09:12:09;;;;;;;1999.90;999.90;;;;;;;10.59;79.27;100450.88;15709696;28;20097;-58
2021/11/21 09:19:42;;;;;;;1999.90;999.90;;;;;;;10.94;78.33;100440.25;15611323;28;20125;-64
2021/11/21 09:27:16;;;;;;;1999.90;999.90;;;;;;;10.99;78.64;100438.06;15637064;28;20045;-63
2021/11/21 09:34:49;;;;;;;1999.90;999.90;;;;;;;10.91;78.77;100438.97;15639672;28;20118;-62
2021/11/21 09:42:24;;;;;;;1999.90;999.90;;;;;;;11.13;78.71;100443.34;15623212;28;20524;-62
2021/11/21 09:50:00;;;;;;;1999.90;999.90;;;;;;;10.87;79.71;100437.22;15612771;28;20049;-64
2021/11/21 09:57:36;;;;;;;1999.90;999.90;;;;;;;10.95;79.61;100422.38;15611605;28;20060;-64
2021/11/21 10:05:20;;;;;;;1999.90;999.90;;;;;;;10.93;79.51;100416.28;15623323;28;20411;-59
2021/11/21 10:12:57;;;;;;;1999.90;999.90;;;;;;;11.02;79.77;100424.59;15613517;28;20137;-60
2021/11/21 10:20:40;;;;;;;1999.90;999.90;;;;;;;11.13;78.55;100412.63;15610881;28;20453;-57
2021/11/21 10:28:18;;;;;;;1999.90;999.90;;;;;;;11.12;79.74;100410.19;15615351;28;20501;-61
2021/11/21 10:35:54;;;;;;;1999.90;999.90;;;;;;;11.07;79.69;100402.88;15624407;28;20068;-57
2021/11/21 10:43:28;;;;;;;1999.90;999.90;;;;;;;11.34;79.02;100415.38;15603661;28;20120;-56
2021/11/21 10:51:02;;;;;;;1999.90;999.90;;;;;;;10.95;79.72;100414.00;15610920;28;20041;-57
2021/11/21 10:58:47;;;;;;;1999.90;999.90;;;;;;;11.17;78.97;100418.38;15614470;28;20045;-58
2021/11/21 11:06:27;;;;;;;1999.90;999.90;;;;;;;11.29;78.99;100418.41;15616122;28;20099;-59
2021/11/21 11:14:02;;;;;;;1999.90;999.90;;;;;;;11.57;77.82;100418.59;15606385;28;20539;-58
2021/11/21 11:21:35;;;;;;;1999.90;999.90;;;;;;;11.25;78.73;100421.09;15604037;28;20111;-56
2021/11/21 11:29:24;;;;;;;1999.90;999.90;;;;;;;11.38;78.78;100423.91;15607224;28;20111;-56
2021/11/21 11:36:56;;;;;;;1999.90;999.90;;;;;;;11.36;78.38;100417.81;15607318;28;20041;-56
2021/11/21 11:44:52;;;;;;;1999.90;999.90;;;;;;;11.49;77.94;100419.50;15610126;28;20124;-56
2021/11/21 11:52:55;;;;;;;1999.90;999.90;;;;;;;11.34;78.54;100423.75;15617198;28;20363;-55
2021/11/21 12:00:35;;;;;;;1999.90;999.90;;;;;;;11.62;77.60;100423.94;15621510;28;20045;-56
2021/11/21 12:08:13;;;;;;;1999.90;999.90;;;;;;;11.67;77.19;100420.09;15626517;28;20049;-58
2021/11/21 12:15:54;;;;;;;1999.90;999.90;;;;;;;11.79;77.13;100420.97;15624576;28;20057;-59
2021/11/21 12:23:57;;;;;;;1999.90;999.90;;;;;;;11.95;76.64;100426.66;15624434;28;20041;-61
2021/11/21 12:31:35;;;;;;;1999.90;999.90;;;;;;;11.81;77.11;100420.63;15609557;28;20056;-56
2021/11/21 12:39:29;;;;;;;1999.90;999.90;;;;;;;12.08;76.58;100427.47;15615995;28;20044;-58
2021/11/21 12:47:05;;;;;;;1999.90;999.90;;;;;;;12.32;75.77;100421.06;15617278;28;20045;-60
2021/11/21 12:54:39;;;;;;;1999.90;999.90;;;;;;;12.28;75.32;100425.72;15654683;28;20402;-60
2021/11/21 13:02:15;;;;;;;1999.90;999.90;;;;;;;12.24;75.89;100417.22;15654312;28;20064;-59
2021/11/21 13:09:57;;;;;;;1999.90;999.90;;;;;;;12.35;75.68;100414.75;15632761;28;20462;-60
2021/11/21 13:17:32;;;;;;;1999.90;999.90;;;;;;;12.60;75.33;100421.91;15619787;28;20041;-61
2021/11/21 13:25:06;;;;;;;1999.90;999.90;;;;;;;12.43;75.14;100423.03;15606575;28;20057;-59
2021/11/21 13:32:40;;;;;;;1999.90;999.90;;;;;;;12.20;75.98;100423.88;15612240;28;20046;-60
2021/11/21 13:40:14;;;;;;;1999.90;999.90;;;;;;;12.30;75.57;100427.03;15618552;28;20069;-60
2021/11/21 13:47:49;;;;;;;1999.90;999.90;;;;;;;12.37;75.45;100418.81;15613263;28;20103;-61
2021/11/21 13:55:25;;;;;;;1999.90;999.90;;;;;;;12.33;74.85;100439.47;15613805;28;20253;-59
2021/11/21 14:03:05;;;;;;;1999.90;999.90;;;;;;;12.35;74.57;100443.56;15612608;28;20064;-60
2021/11/21 14:10:39;;;;;;;1999.90;999.90;;;;;;;12.01;75.26;100444.84;15628064;28;20037;-62
2021/11/21 14:18:16;;;;;;;1999.90;999.90;;;;;;;12.14;75.00;100449.28;15611159;28;20395;-57
2021/11/21 14:25:53;;;;;;;1999.90;999.90;;;;;;;12.16;74.77;100451.72;15610754;28;20056;-59
2021/11/21 14:33:29;;;;;;;1999.90;999.90;;;;;;;12.07;75.39;100471.41;15614246;28;20103;-60
2021/11/21 14:41:07;;;;;;;1999.90;999.90;;;;;;;11.94;75.89;100478.16;15613300;28;20045;-59
2021/11/21 14:48:50;;;;;;;1999.90;999.90;;;;;;;11.87;75.89;100480.72;15613408;28;20471;-58
2021/11/21 14:56:23;;;;;;;1999.90;999.90;;;;;;;11.72;76.23;100495.34;15609414;28;20068;-60
2021/11/21 15:04:02;;;;;;;1999.90;999.90;;;;;;;11.72;76.08;100500.94;15609164;28;20049;-60
2021/11/21 15:11:40;;;;;;;1999.90;999.90;;;;;;;11.90;75.68;100502.41;15608078;28;20038;-60
2021/11/21 15:19:15;;;;;;;1999.90;999.90;;;;;;;11.83;75.79;100500.16;15650437;28;20482;-62
2021/11/21 15:26:49;;;;;;;1999.90;999.90;;;;;;;11.87;75.43;100510.66;15606798;28;20057;-59
2021/11/21 15:34:25;;;;;;;1999.90;999.90;;;;;;;11.86;75.72;100504.25;15650921;28;20407;-62
2021/11/21 15:41:59;;;;;;;1999.90;999.90;;;;;;;11.82;75.20;100503.31;15611426;28;20042;-62
2021/11/21 15:49:33;;;;;;;1999.90;999.90;;;;;;;11.57;76.55;100508.00;15624526;28;20061;-61
2021/11/21 15:57:07;;;;;;;1999.90;999.90;;;;;;;11.59;76.29;100502.88;15598910;28;20448;-60
2021/11/21 16:04:41;;;;;;;;;;;;;;;11.35;76.88;100523.16;15634782;22;20087;-69
2021/11/21 16:12:14;;;;;;;1999.90;999.90;;;;;;;11.19;77.12;100519.38;15597678;28;19964;-67
2021/11/21 16:19:48;;;;;;;1999.90;999.90;;;;;;;11.21;76.93;100526.25;15586075;28;20054;-69
2021/11/21 16:27:21;;;;;;;1999.90;999.90;;;;;;;11.33;75.32;100544.22;15611054;28;20036;-68
2021/11/21 16:34:55;;;;;;;1999.90;999.90;;;;;;;11.38;73.19;100544.84;15641453;28;20039;-69
2021/11/21 16:42:28;;;;;;;1999.90;999.90;;;;;;;11.37;72.34;100559.16;15655780;28;20041;-70
2021/11/21 16:50:02;;;;;;;1999.90;999.90;;;;;;;11.09;72.26;100579.25;15623959;28;20400;-69
2021/11/21 16:57:35;;;;;;;1999.90;999.90;;;;;;;10.86;72.97;100589.09;15636455;28;20057;-69
2021/11/21 17:05:10;;;;;;;1999.90;999.90;;;;;;;10.78;73.62;100593.56;15600381;28;20048;-69
2021/11/21 17:12:43;;;;;;;1999.90;999.90;;;;;;;10.64;73.69;100605.00;15612867;28;20274;-69
2021/11/21 17:20:22;;;;;;;1999.90;999.90;;;;;;;10.43;73.59;100620.03;15635915;28;20517;-68
2021/11/21 17:27:57;;;;;;;1999.90;999.90;;;;;;;10.15;74.34;100630.75;15609637;28;20062;-69
2021/11/21 17:35:32;;;;;;;1999.90;999.90;;;;;;;10.02;74.52;100624.22;15610089;28;20056;-68
2021/11/21 17:43:05;;;;;;;1999.90;999.90;;;;;;;9.83;74.83;100635.72;15604885;28;20405;-69
2021/11/21 17:50:41;;;;;;;1999.90;999.90;;;;;;;9.73;75.26;100644.41;15596302;28;20045;-68
2021/11/21 17:58:14;;;;;;;1999.90;999.90;;;;;;;9.59;75.06;100658.53;15590747;28;20863;-68
2021/11/21 18:05:48;;;;;;;1999.90;999.90;;;;;;;9.53;74.99;100660.66;15605864;28;20064;-68
2021/11/21 18:13:22;;;;;;;1999.90;999.90;;;;;;;9.41;75.64;100670.81;15601954;28;20808;-68
2021/11/21 18:20:57;;;;;;;1999.90;999.90;;;;;;;9.31;75.48;100668.34;15625901;28;20052;-70
2021/11/21 18:28:30;;;;;;;1999.90;999.90;;;;;;;9.26;75.54;100697.97;15619266;28;20032;-68
2021/11/21 18:36:08;;;;;;;1999.90;999.90;;;;;;;9.23;75.64;100701.41;15620942;28;20053;-67
2021/11/21 18:43:42;;;;;;;1999.90;999.90;;;;;;;9.18;76.05;100698.78;15617647;28;20037;-68
2021/11/21 18:51:16;;;;;;;;;;;;;;;9.11;75.18;100709.56;15600716;28;20099;-69
2021/11/21 18:58:53;;;;;;;1999.90;999.90;;;;;;;8.89;75.76;100718.00;15582426;28;19924;-67
2021/11/21 19:06:27;;;;;;;1999.90;999.90;;;;;;;8.78;75.31;100727.78;15634174;28;20107;-70
2021/11/21 19:14:00;;;;;;;1999.90;999.90;;;;;;;8.61;75.14;100734.91;15623200;28;20458;-68
2021/11/21 19:21:34;;;;;;;1999.90;999.90;;;;;;;8.62;75.04;100755.19;15615696;28;20509;-67
2021/11/21 19:29:09;;;;;;;1999.90;999.90;;;;;;;8.59;74.73;100761.41;15595721;28;20284;-71
2021/11/21 19:36:43;;;;;;;1999.90;999.90;;;;;;;8.47;75.08;100764.75;15608014;28;20138;-67
2021/11/21 19:44:16;;;;;;;1999.90;999.90;;;;;;;8.39;75.34;100774.69;15613700;28;20274;-71
2021/11/21 19:51:51;;;;;;;1999.90;999.90;;;;;;;8.32;74.99;100790.94;15611846;28;20510;-64
2021/11/21 19:59:23;;;;;;;1999.90;999.90;;;;;;;8.18;75.28;100784.63;15609312;28;20146;-67
2021/11/21 20:06:58;;;;;;;1999.90;999.90;;;;;;;8.16;74.68;100800.81;15616072;28;20049;-67
2021/11/21 20:14:31;;;;;;;1999.90;999.90;;;;;;;8.09;74.59;100805.97;15619663;28;20038;-68
2021/11/21 20:22:05;;;;;;;1999.90;999.90;;;;;;;8.03;75.08;100821.16;15621040;28;20549;-66
2021/11/21 20:29:38;;;;;;;1999.90;999.90;;;;;;;8.00;75.43;100833.69;15613677;28;20057;-69
2021/11/21 20:37:20;;;;;;;1999.90;999.90;;;;;;;7.99;75.19;100837.59;15615572;28;20406;-67
2021/11/21 20:44:53;;;;;;;1999.90;999.90;;;;;;;7.98;75.17;100847.09;15650145;28;20045;-66
2021/11/21 20:52:28;;;;;;;1999.90;999.90;;;;;;;7.96;75.17;100851.31;15641961;28;20125;-65
2021/11/21 21:00:02;;;;;;;1999.90;999.90;;;;;;;7.99;75.40;100857.06;15592548;28;20415;-67
2021/11/21 21:07:37;;;;;;;1999.90;999.90;;;;;;;7.97;75.29;100858.50;15615555;28;20046;-68
2021/11/21 21:15:11;;;;;;;1999.90;999.90;;;;;;;7.97;75.26;100864.91;15660569;28;20128;-66
2021/11/21 21:22:46;;;;;;;1999.90;999.90;;;;;;;8.06;75.21;100879.69;15640876;28;20046;-68
2021/11/21 21:30:47;;;;;;;1999.90;999.90;;;;;;;8.04;75.48;100893.09;15629178;28;20409;-67
2021/11/21 21:38:22;;;;;;;1999.90;999.90;;;;;;;7.89;75.37;100893.41;15629122;28;20049;-67
2021/11/21 21:45:56;;;;;;;1999.90;999.90;;;;;;;7.51;75.79;100887.28;15644561;28;20033;-66
2021/11/21 21:53:31;;;;;;;1999.90;999.90;;;;;;;7.56;75.61;100883.56;15636543;28;20045;-67
2021/11/21 22:01:05;;;;;;;1999.90;999.90;;;;;;;7.42;75.30;100909.38;15661724;28;20037;-69
2021/11/21 22:08:39;;;;;;;1999.90;999.90;;;;;;;7.46;76.12;100912.34;15693791;22;20401;-59
2021/11/21 22:16:13;;;;;;;1999.90;999.90;;;;;;;7.49;75.63;100907.00;15705665;28;20069;-59
2021/11/21 22:23:49;;;;;;;1999.90;999.90;;;;;;;7.44;75.40;100929.31;15636777;28;20092;-62
2021/11/21 22:31:21;;;;;;;1999.90;999.90;;;;;;;7.27;75.00;100942.97;15659484;28;20485;-61
2021/11/21 22:38:56;;;;;;;1999.90;999.90;;;;;;;7.22;74.24;100943.06;15649523;28;20041;-61
2021/11/21 22:46:29;;;;;;;1999.90;999.90;;;;;;;7.13;74.89;100961.53;15653893;28;20045;-62
2021/11/21 22:54:05;;;;;;;1999.90;999.90;;;;;;;7.35;76.81;100974.75;15641692;28;20532;-62
2021/11/21 23:01:39;;;;;;;1999.90;999.90;;;;;;;7.61;77.51;100972.31;15656677;28;20102;-58
2021/11/21 23:09:13;;;;;;;1999.90;999.90;;;;;;;7.46;78.07;100990.91;15628100;28;20465;-62
2021/11/21 23:16:46;;;;;;;1999.90;999.90;;;;;;;7.45;78.23;100996.78;15649088;28;20295;-62
2021/11/21 23:24:20;;;;;;;1999.90;999.90;;;;;;;7.35;77.79;101008.88;15637215;28;20052;-61
2021/11/21 23:31:54;;;;;;;1999.90;999.90;;;;;;;7.33;78.29;101007.56;15636541;28;20161;-61
2021/11/21 23:39:28;;;;;;;;;;;;;;;7.14;79.16;101019.50;15654703;28;20140;-62
2021/11/21 23:47:01;;;;;;;1999.90;999.90;;;;;;;7.19;78.72;101032.47;15653580;28;20385;-60
2021/11/21 23:54:35;;;;;;;1999.90;999.90;;;;;;;7.33;78.69;101036.13;15650950;28;20563;-60
